sensor_id;sensor_type;location;lat;lon;timestamp;pressure;altitude;pressure_sealevel;temperature
12061;BMP180;6091;51.432;6.880;2022-07-10T00:02:05;101927.00;;;27.90
12061;BMP180;6091;51.432;6.880;2022-07-10T00:04:32;101926.00;;;27.80
12061;BMP180;6091;51.432;6.880;2022-07-10T00:06:59;101928.00;;;27.80
12061;BMP180;6091;51.432;6.880;2022-07-10T00:09:28;101920.00;;;27.80
12061;BMP180;6091;51.432;6.880;2022-07-10T00:11:56;101923.00;;;27.80
12061;BMP180;6091;51.432;6.880;2022-07-10T00:14:23;101919.00;;;27.80
12061;BMP180;6091;51.432;6.880;2022-07-10T00:16:50;101924.00;;;27.80
12061;BMP180;6091;51.432;6.880;2022-07-10T00:19:18;101919.00;;;27.80
12061;BMP180;6091;51.432;6.880;2022-07-10T00:21:44;101916.00;;;27.80
12061;BMP180;6091;51.432;6.880;2022-07-10T00:24:11;101920.00;;;27.80
12061;BMP180;6091;51.432;6.880;2022-07-10T00:26:38;101926.00;;;27.80
12061;BMP180;6091;51.432;6.880;2022-07-10T00:29:05;101922.00;;;27.80
12061;BMP180;6091;51.432;6.880;2022-07-10T00:31:32;101916.00;;;27.80
12061;BMP180;6091;51.432;6.880;2022-07-10T00:34:00;101913.00;;;27.80
12061;BMP180;6091;51.432;6.880;2022-07-10T00:36:27;101914.00;;;27.80
12061;BMP180;6091;51.432;6.880;2022-07-10T00:38:53;101916.00;;;27.80
12061;BMP180;6091;51.432;6.880;2022-07-10T00:41:20;101916.00;;;27.80
12061;BMP180;6091;51.432;6.880;2022-07-10T00:46:24;101907.00;;;27.80
12061;BMP180;6091;51.432;6.880;2022-07-10T00:48:52;101907.00;;;27.80
12061;BMP180;6091;51.432;6.880;2022-07-10T00:51:24;101899.00;;;27.80
12061;BMP180;6091;51.432;6.880;2022-07-10T00:53:52;101896.00;;;27.70
12061;BMP180;6091;51.432;6.880;2022-07-10T00:56:25;101895.00;;;27.70
12061;BMP180;6091;51.432;6.880;2022-07-10T00:58:53;101898.00;;;27.70
12061;BMP180;6091;51.432;6.880;2022-07-10T01:01:20;101892.00;;;27.70
12061;BMP180;6091;51.432;6.880;2022-07-10T01:03:50;101893.00;;;27.70
12061;BMP180;6091;51.432;6.880;2022-07-10T01:06:18;101892.00;;;27.70
12061;BMP180;6091;51.432;6.880;2022-07-10T01:08:45;101891.00;;;27.70
12061;BMP180;6091;51.432;6.880;2022-07-10T01:11:14;101882.00;;;27.70
12061;BMP180;6091;51.432;6.880;2022-07-10T01:13:43;101884.00;;;27.70
12061;BMP180;6091;51.432;6.880;2022-07-10T01:16:11;101884.00;;;27.70
12061;BMP180;6091;51.432;6.880;2022-07-10T01:18:40;101881.00;;;27.70
12061;BMP180;6091;51.432;6.880;2022-07-10T01:21:29;101886.00;;;27.70
12061;BMP180;6091;51.432;6.880;2022-07-10T01:23:59;101884.00;;;27.60
12061;BMP180;6091;51.432;6.880;2022-07-10T01:26:26;101878.00;;;27.70
12061;BMP180;6091;51.432;6.880;2022-07-10T01:28:54;101878.00;;;27.70
12061;BMP180;6091;51.432;6.880;2022-07-10T01:31:26;101871.00;;;27.70
12061;BMP180;6091;51.432;6.880;2022-07-10T01:33:54;101869.00;;;27.60
12061;BMP180;6091;51.432;6.880;2022-07-10T01:36:22;101858.00;;;27.70
12061;BMP180;6091;51.432;6.880;2022-07-10T01:38:54;101855.00;;;27.60
12061;BMP180;6091;51.432;6.880;2022-07-10T01:41:23;101852.00;;;27.70
12061;BMP180;6091;51.432;6.880;2022-07-10T01:43:51;101854.00;;;27.60
12061;BMP180;6091;51.432;6.880;2022-07-10T01:46:19;101853.00;;;27.70
12061;BMP180;6091;51.432;6.880;2022-07-10T01:48:46;101852.00;;;27.70
12061;BMP180;6091;51.432;6.880;2022-07-10T01:51:13;101855.00;;;27.70
12061;BMP180;6091;51.432;6.880;2022-07-10T01:53:41;101854.00;;;27.70
12061;BMP180;6091;51.432;6.880;2022-07-10T01:56:11;101850.00;;;27.70
12061;BMP180;6091;51.432;6.880;2022-07-10T01:58:39;101846.00;;;27.60
12061;BMP180;6091;51.432;6.880;2022-07-10T02:01:08;101842.00;;;27.70
12061;BMP180;6091;51.432;6.880;2022-07-10T02:03:35;101845.00;;;27.60
12061;BMP180;6091;51.432;6.880;2022-07-10T02:06:21;101839.00;;;27.60
12061;BMP180;6091;51.432;6.880;2022-07-10T02:08:48;101834.00;;;27.60
12061;BMP180;6091;51.432;6.880;2022-07-10T02:11:15;101828.00;;;27.60
12061;BMP180;6091;51.432;6.880;2022-07-10T02:13:42;101829.00;;;27.60
12061;BMP180;6091;51.432;6.880;2022-07-10T02:16:09;101827.00;;;27.60
12061;BMP180;6091;51.432;6.880;2022-07-10T02:18:37;101824.00;;;27.60
12061;BMP180;6091;51.432;6.880;2022-07-10T02:21:07;101830.00;;;27.60
12061;BMP180;6091;51.432;6.880;2022-07-10T02:23:35;101826.00;;;27.60
12061;BMP180;6091;51.432;6.880;2022-07-10T02:26:02;101823.00;;;27.60
12061;BMP180;6091;51.432;6.880;2022-07-10T02:28:30;101828.00;;;27.60
12061;BMP180;6091;51.432;6.880;2022-07-10T02:30:58;101824.00;;;27.60
12061;BMP180;6091;51.432;6.880;2022-07-10T02:33:25;101831.00;;;27.60
12061;BMP180;6091;51.432;6.880;2022-07-10T02:35:52;101832.00;;;27.60
12061;BMP180;6091;51.432;6.880;2022-07-10T02:38:19;101825.00;;;27.60
12061;BMP180;6091;51.432;6.880;2022-07-10T02:40:46;101823.00;;;27.60
12061;BMP180;6091;51.432;6.880;2022-07-10T02:43:13;101816.00;;;27.60
12061;BMP180;6091;51.432;6.880;2022-07-10T02:45:40;101823.00;;;27.60
12061;BMP180;6091;51.432;6.880;2022-07-10T02:48:14;101812.00;;;27.60
12061;BMP180;6091;51.432;6.880;2022-07-10T02:50:42;101816.00;;;27.60
12061;BMP180;6091;51.432;6.880;2022-07-10T02:53:12;101815.00;;;27.60
12061;BMP180;6091;51.432;6.880;2022-07-10T02:55:39;101818.00;;;27.60
12061;BMP180;6091;51.432;6.880;2022-07-10T02:58:06;101825.00;;;27.60
12061;BMP180;6091;51.432;6.880;2022-07-10T03:00:33;101819.00;;;27.60
12061;BMP180;6091;51.432;6.880;2022-07-10T03:03:00;101828.00;;;27.60
12061;BMP180;6091;51.432;6.880;2022-07-10T03:05:27;101827.00;;;27.60
12061;BMP180;6091;51.432;6.880;2022-07-10T03:07:54;101825.00;;;27.60
12061;BMP180;6091;51.432;6.880;2022-07-10T03:10:21;101829.00;;;27.60
12061;BMP180;6091;51.432;6.880;2022-07-10T03:12:48;101822.00;;;27.60
12061;BMP180;6091;51.432;6.880;2022-07-10T03:15:15;101825.00;;;27.60
12061;BMP180;6091;51.432;6.880;2022-07-10T03:17:42;101823.00;;;27.60
12061;BMP180;6091;51.432;6.880;2022-07-10T03:20:10;101822.00;;;27.60
12061;BMP180;6091;51.432;6.880;2022-07-10T03:22:37;101827.00;;;27.60
12061;BMP180;6091;51.432;6.880;2022-07-10T03:25:05;101826.00;;;27.50
12061;BMP180;6091;51.432;6.880;2022-07-10T03:27:32;101830.00;;;27.50
12061;BMP180;6091;51.432;6.880;2022-07-10T03:29:59;101828.00;;;27.60
12061;BMP180;6091;51.432;6.880;2022-07-10T03:32:26;101828.00;;;27.50
12061;BMP180;6091;51.432;6.880;2022-07-10T03:34:53;101823.00;;;27.50
12061;BMP180;6091;51.432;6.880;2022-07-10T03:37:24;101829.00;;;27.50
12061;BMP180;6091;51.432;6.880;2022-07-10T03:39:53;101830.00;;;27.50
12061;BMP180;6091;51.432;6.880;2022-07-10T03:42:20;101823.00;;;27.50
12061;BMP180;6091;51.432;6.880;2022-07-10T03:44:47;101823.00;;;27.50
12061;BMP180;6091;51.432;6.880;2022-07-10T03:47:14;101827.00;;;27.50
12061;BMP180;6091;51.432;6.880;2022-07-10T03:49:41;101825.00;;;27.50
12061;BMP180;6091;51.432;6.880;2022-07-10T03:52:08;101834.00;;;27.50
12061;BMP180;6091;51.432;6.880;2022-07-10T03:54:36;101837.00;;;27.50
12061;BMP180;6091;51.432;6.880;2022-07-10T03:57:03;101832.00;;;27.50
12061;BMP180;6091;51.432;6.880;2022-07-10T03:59:49;101830.00;;;27.50
12061;BMP180;6091;51.432;6.880;2022-07-10T04:02:17;101829.00;;;27.50
12061;BMP180;6091;51.432;6.880;2022-07-10T04:04:44;101828.00;;;27.50
12061;BMP180;6091;51.432;6.880;2022-07-10T04:07:12;101827.00;;;27.50
12061;BMP180;6091;51.432;6.880;2022-07-10T04:09:39;101823.00;;;27.50
12061;BMP180;6091;51.432;6.880;2022-07-10T04:12:06;101823.00;;;27.50
12061;BMP180;6091;51.432;6.880;2022-07-10T04:14:33;101822.00;;;27.50
12061;BMP180;6091;51.432;6.880;2022-07-10T04:17:00;101829.00;;;27.50
12061;BMP180;6091;51.432;6.880;2022-07-10T04:19:27;101830.00;;;27.50
12061;BMP180;6091;51.432;6.880;2022-07-10T04:21:54;101829.00;;;27.50
12061;BMP180;6091;51.432;6.880;2022-07-10T04:24:21;101829.00;;;27.50
12061;BMP180;6091;51.432;6.880;2022-07-10T04:26:48;101827.00;;;27.50
12061;BMP180;6091;51.432;6.880;2022-07-10T04:29:15;101824.00;;;27.50
12061;BMP180;6091;51.432;6.880;2022-07-10T04:31:42;101822.00;;;27.50
12061;BMP180;6091;51.432;6.880;2022-07-10T04:34:09;101827.00;;;27.50
12061;BMP180;6091;51.432;6.880;2022-07-10T04:36:36;101832.00;;;27.50
12061;BMP180;6091;51.432;6.880;2022-07-10T04:39:03;101831.00;;;27.50
12061;BMP180;6091;51.432;6.880;2022-07-10T04:41:30;101829.00;;;27.50
12061;BMP180;6091;51.432;6.880;2022-07-10T04:43:57;101838.00;;;27.50
12061;BMP180;6091;51.432;6.880;2022-07-10T04:46:24;101831.00;;;27.50
12061;BMP180;6091;51.432;6.880;2022-07-10T04:48:51;101815.00;;;27.40
12061;BMP180;6091;51.432;6.880;2022-07-10T04:51:18;101820.00;;;27.40
12061;BMP180;6091;51.432;6.880;2022-07-10T04:53:45;101823.00;;;27.40
12061;BMP180;6091;51.432;6.880;2022-07-10T04:56:12;101825.00;;;27.40
12061;BMP180;6091;51.432;6.880;2022-07-10T04:58:39;101826.00;;;27.40
12061;BMP180;6091;51.432;6.880;2022-07-10T05:01:07;101824.00;;;27.50
12061;BMP180;6091;51.432;6.880;2022-07-10T05:03:34;101825.00;;;27.40
12061;BMP180;6091;51.432;6.880;2022-07-10T05:06:01;101822.00;;;27.50
12061;BMP180;6091;51.432;6.880;2022-07-10T05:08:28;101828.00;;;27.40
12061;BMP180;6091;51.432;6.880;2022-07-10T05:10:55;101827.00;;;27.40
12061;BMP180;6091;51.432;6.880;2022-07-10T05:13:22;101830.00;;;27.40
12061;BMP180;6091;51.432;6.880;2022-07-10T05:15:49;101837.00;;;27.50
12061;BMP180;6091;51.432;6.880;2022-07-10T05:18:16;101830.00;;;27.50
12061;BMP180;6091;51.432;6.880;2022-07-10T05:20:44;101825.00;;;27.50
12061;BMP180;6091;51.432;6.880;2022-07-10T05:23:11;101835.00;;;27.50
12061;BMP180;6091;51.432;6.880;2022-07-10T05:25:38;101828.00;;;27.50
12061;BMP180;6091;51.432;6.880;2022-07-10T05:28:07;101835.00;;;27.50
12061;BMP180;6091;51.432;6.880;2022-07-10T05:30:34;101833.00;;;27.50
12061;BMP180;6091;51.432;6.880;2022-07-10T05:33:01;101837.00;;;27.50
12061;BMP180;6091;51.432;6.880;2022-07-10T05:35:28;101833.00;;;27.40
12061;BMP180;6091;51.432;6.880;2022-07-10T05:37:55;101840.00;;;27.40
12061;BMP180;6091;51.432;6.880;2022-07-10T05:40:22;101847.00;;;27.40
12061;BMP180;6091;51.432;6.880;2022-07-10T05:42:49;101845.00;;;27.40
12061;BMP180;6091;51.432;6.880;2022-07-10T05:45:17;101840.00;;;27.40
12061;BMP180;6091;51.432;6.880;2022-07-10T05:47:44;101840.00;;;27.40
12061;BMP180;6091;51.432;6.880;2022-07-10T05:50:11;101848.00;;;27.40
12061;BMP180;6091;51.432;6.880;2022-07-10T05:52:39;101848.00;;;27.40
12061;BMP180;6091;51.432;6.880;2022-07-10T05:55:07;101847.00;;;27.40
12061;BMP180;6091;51.432;6.880;2022-07-10T05:57:35;101842.00;;;27.40
12061;BMP180;6091;51.432;6.880;2022-07-10T06:00:07;101840.00;;;27.40
12061;BMP180;6091;51.432;6.880;2022-07-10T06:02:34;101837.00;;;27.40
12061;BMP180;6091;51.432;6.880;2022-07-10T06:05:01;101846.00;;;27.40
12061;BMP180;6091;51.432;6.880;2022-07-10T06:07:28;101847.00;;;27.40
12061;BMP180;6091;51.432;6.880;2022-07-10T06:09:56;101848.00;;;27.40
12061;BMP180;6091;51.432;6.880;2022-07-10T06:12:23;101849.00;;;27.40
12061;BMP180;6091;51.432;6.880;2022-07-10T06:14:50;101850.00;;;27.40
12061;BMP180;6091;51.432;6.880;2022-07-10T06:17:17;101844.00;;;27.40
12061;BMP180;6091;51.432;6.880;2022-07-10T06:19:44;101854.00;;;27.40
12061;BMP180;6091;51.432;6.880;2022-07-10T06:22:11;101849.00;;;27.40
12061;BMP180;6091;51.432;6.880;2022-07-10T06:25:03;101850.00;;;27.40
12061;BMP180;6091;51.432;6.880;2022-07-10T06:27:30;101839.00;;;27.40
12061;BMP180;6091;51.432;6.880;2022-07-10T06:29:58;101837.00;;;27.40
12061;BMP180;6091;51.432;6.880;2022-07-10T06:32:26;101845.00;;;27.40
12061;BMP180;6091;51.432;6.880;2022-07-10T06:34:55;101843.00;;;27.40
12061;BMP180;6091;51.432;6.880;2022-07-10T06:37:22;101848.00;;;27.40
12061;BMP180;6091;51.432;6.880;2022-07-10T06:39:49;101848.00;;;27.40
12061;BMP180;6091;51.432;6.880;2022-07-10T06:42:16;101846.00;;;27.40
12061;BMP180;6091;51.432;6.880;2022-07-10T06:44:44;101844.00;;;27.40
12061;BMP180;6091;51.432;6.880;2022-07-10T06:47:16;101844.00;;;27.50
12061;BMP180;6091;51.432;6.880;2022-07-10T06:50:07;101838.00;;;27.40
12061;BMP180;6091;51.432;6.880;2022-07-10T06:52:35;101845.00;;;27.40
12061;BMP180;6091;51.432;6.880;2022-07-10T06:55:03;101848.00;;;27.50
12061;BMP180;6091;51.432;6.880;2022-07-10T06:57:31;101854.00;;;27.50
12061;BMP180;6091;51.432;6.880;2022-07-10T06:59:58;101848.00;;;27.50
12061;BMP180;6091;51.432;6.880;2022-07-10T07:02:25;101856.00;;;27.50
12061;BMP180;6091;51.432;6.880;2022-07-10T07:04:52;101846.00;;;27.40
12061;BMP180;6091;51.432;6.880;2022-07-10T07:07:19;101847.00;;;27.40
12061;BMP180;6091;51.432;6.880;2022-07-10T07:09:52;101847.00;;;27.30
12061;BMP180;6091;51.432;6.880;2022-07-10T07:12:19;101847.00;;;27.30
12061;BMP180;6091;51.432;6.880;2022-07-10T07:14:47;101855.00;;;27.30
12061;BMP180;6091;51.432;6.880;2022-07-10T07:17:14;101850.00;;;27.30
12061;BMP180;6091;51.432;6.880;2022-07-10T07:19:49;101854.00;;;27.30
12061;BMP180;6091;51.432;6.880;2022-07-10T07:22:35;101853.00;;;27.20
12061;BMP180;6091;51.432;6.880;2022-07-10T07:25:20;101854.00;;;27.10
12061;BMP180;6091;51.432;6.880;2022-07-10T07:27:47;101845.00;;;27.10
12061;BMP180;6091;51.432;6.880;2022-07-10T07:30:15;101857.00;;;27.10
12061;BMP180;6091;51.432;6.880;2022-07-10T07:32:45;101869.00;;;27.00
12061;BMP180;6091;51.432;6.880;2022-07-10T07:35:15;101865.00;;;27.00
12061;BMP180;6091;51.432;6.880;2022-07-10T07:37:46;101876.00;;;27.00
12061;BMP180;6091;51.432;6.880;2022-07-10T07:40:19;101872.00;;;27.00
12061;BMP180;6091;51.432;6.880;2022-07-10T07:42:46;101879.00;;;26.90
12061;BMP180;6091;51.432;6.880;2022-07-10T07:45:13;101875.00;;;26.90
12061;BMP180;6091;51.432;6.880;2022-07-10T07:47:47;101869.00;;;26.90
12061;BMP180;6091;51.432;6.880;2022-07-10T07:50:18;101882.00;;;26.80
12061;BMP180;6091;51.432;6.880;2022-07-10T07:52:47;101881.00;;;26.80
12061;BMP180;6091;51.432;6.880;2022-07-10T07:55:17;101884.00;;;26.80
12061;BMP180;6091;51.432;6.880;2022-07-10T07:57:45;101887.00;;;26.80
12061;BMP180;6091;51.432;6.880;2022-07-10T08:00:14;101890.00;;;26.80
12061;BMP180;6091;51.432;6.880;2022-07-10T08:02:41;101896.00;;;26.80
12061;BMP180;6091;51.432;6.880;2022-07-10T08:05:10;101887.00;;;26.80
12061;BMP180;6091;51.432;6.880;2022-07-10T08:07:43;101887.00;;;26.80
12061;BMP180;6091;51.432;6.880;2022-07-10T08:10:15;101897.00;;;26.80
12061;BMP180;6091;51.432;6.880;2022-07-10T08:12:43;101892.00;;;26.80
12061;BMP180;6091;51.432;6.880;2022-07-10T08:15:16;101892.00;;;26.80
12061;BMP180;6091;51.432;6.880;2022-07-10T08:17:46;101887.00;;;26.80
12061;BMP180;6091;51.432;6.880;2022-07-10T08:20:14;101890.00;;;26.80
12061;BMP180;6091;51.432;6.880;2022-07-10T08:22:41;101883.00;;;26.90
12061;BMP180;6091;51.432;6.880;2022-07-10T08:25:10;101888.00;;;26.90
12061;BMP180;6091;51.432;6.880;2022-07-10T08:27:38;101883.00;;;27.00
12061;BMP180;6091;51.432;6.880;2022-07-10T08:30:07;101875.00;;;27.00
12061;BMP180;6091;51.432;6.880;2022-07-10T08:32:37;101884.00;;;27.00
12061;BMP180;6091;51.432;6.880;2022-07-10T08:35:06;101879.00;;;26.90
12061;BMP180;6091;51.432;6.880;2022-07-10T08:37:41;101874.00;;;26.90
12061;BMP180;6091;51.432;6.880;2022-07-10T08:40:11;101870.00;;;26.90
12061;BMP180;6091;51.432;6.880;2022-07-10T08:42:41;101875.00;;;26.90
12061;BMP180;6091;51.432;6.880;2022-07-10T08:45:11;101880.00;;;26.90
12061;BMP180;6091;51.432;6.880;2022-07-10T08:47:39;101875.00;;;26.90
12061;BMP180;6091;51.432;6.880;2022-07-10T08:52:52;101869.00;;;26.90
12061;BMP180;6091;51.432;6.880;2022-07-10T08:55:26;101862.00;;;26.90
12061;BMP180;6091;51.432;6.880;2022-07-10T08:57:54;101872.00;;;26.90
12061;BMP180;6091;51.432;6.880;2022-07-10T09:00:24;101854.00;;;26.90
12061;BMP180;6091;51.432;6.880;2022-07-10T09:02:54;101865.00;;;26.90
12061;BMP180;6091;51.432;6.880;2022-07-10T09:05:24;101861.00;;;26.90
12061;BMP180;6091;51.432;6.880;2022-07-10T09:07:54;101859.00;;;26.90
12061;BMP180;6091;51.432;6.880;2022-07-10T09:10:26;101855.00;;;26.90
12061;BMP180;6091;51.432;6.880;2022-07-10T09:15:26;101848.00;;;26.90
12061;BMP180;6091;51.432;6.880;2022-07-10T09:17:57;101855.00;;;26.90
12061;BMP180;6091;51.432;6.880;2022-07-10T09:20:36;101853.00;;;26.90
12061;BMP180;6091;51.432;6.880;2022-07-10T09:23:17;101857.00;;;26.90
12061;BMP180;6091;51.432;6.880;2022-07-10T09:25:46;101854.00;;;26.90
12061;BMP180;6091;51.432;6.880;2022-07-10T09:28:20;101845.00;;;26.90
12061;BMP180;6091;51.432;6.880;2022-07-10T09:30:49;101849.00;;;26.80
12061;BMP180;6091;51.432;6.880;2022-07-10T09:33:30;101851.00;;;26.80
12061;BMP180;6091;51.432;6.880;2022-07-10T09:43:56;101842.00;;;26.70
12061;BMP180;6091;51.432;6.880;2022-07-10T09:46:33;101841.00;;;26.70
12061;BMP180;6091;51.432;6.880;2022-07-10T09:49:12;101848.00;;;26.70
12061;BMP180;6091;51.432;6.880;2022-07-10T09:51:45;101840.00;;;26.70
12061;BMP180;6091;51.432;6.880;2022-07-10T09:54:16;101842.00;;;26.70
12061;BMP180;6091;51.432;6.880;2022-07-10T09:56:50;101844.00;;;26.70
12061;BMP180;6091;51.432;6.880;2022-07-10T09:59:24;101840.00;;;26.70
12061;BMP180;6091;51.432;6.880;2022-07-10T10:01:52;101838.00;;;26.70
12061;BMP180;6091;51.432;6.880;2022-07-10T10:04:22;101833.00;;;26.70
12061;BMP180;6091;51.432;6.880;2022-07-10T10:06:56;101834.00;;;26.70
12061;BMP180;6091;51.432;6.880;2022-07-10T10:09:31;101831.00;;;26.70
12061;BMP180;6091;51.432;6.880;2022-07-10T10:12:14;101828.00;;;26.70
12061;BMP180;6091;51.432;6.880;2022-07-10T10:14:44;101820.00;;;26.70
12061;BMP180;6091;51.432;6.880;2022-07-10T10:17:12;101824.00;;;26.70
12061;BMP180;6091;51.432;6.880;2022-07-10T10:19:40;101818.00;;;26.70
12061;BMP180;6091;51.432;6.880;2022-07-10T10:22:27;101819.00;;;26.60
12061;BMP180;6091;51.432;6.880;2022-07-10T10:24:56;101813.00;;;26.60
12061;BMP180;6091;51.432;6.880;2022-07-10T10:27:25;101815.00;;;26.60
12061;BMP180;6091;51.432;6.880;2022-07-10T10:29:53;101818.00;;;26.60
12061;BMP180;6091;51.432;6.880;2022-07-10T10:32:20;101811.00;;;26.60
12061;BMP180;6091;51.432;6.880;2022-07-10T10:34:49;101821.00;;;26.60
12061;BMP180;6091;51.432;6.880;2022-07-10T10:37:37;101815.00;;;26.60
12061;BMP180;6091;51.432;6.880;2022-07-10T10:40:11;101815.00;;;26.60
12061;BMP180;6091;51.432;6.880;2022-07-10T10:42:58;101812.00;;;26.60
12061;BMP180;6091;51.432;6.880;2022-07-10T10:45:41;101807.00;;;26.60
12061;BMP180;6091;51.432;6.880;2022-07-10T10:48:11;101818.00;;;26.60
12061;BMP180;6091;51.432;6.880;2022-07-10T10:50:59;101813.00;;;26.70
12061;BMP180;6091;51.432;6.880;2022-07-10T10:53:28;101806.00;;;26.70
12061;BMP180;6091;51.432;6.880;2022-07-10T10:58:46;101809.00;;;26.70
12061;BMP180;6091;51.432;6.880;2022-07-10T11:06:52;101803.00;;;26.60
12061;BMP180;6091;51.432;6.880;2022-07-10T11:12:15;101788.00;;;26.60
12061;BMP180;6091;51.432;6.880;2022-07-10T11:14:46;101783.00;;;26.60
12061;BMP180;6091;51.432;6.880;2022-07-10T11:17:16;101792.00;;;26.60
12061;BMP180;6091;51.432;6.880;2022-07-10T11:19:43;101794.00;;;26.70
12061;BMP180;6091;51.432;6.880;2022-07-10T11:28:07;101778.00;;;26.90
12061;BMP180;6091;51.432;6.880;2022-07-10T11:30:54;101791.00;;;27.00
12061;BMP180;6091;51.432;6.880;2022-07-10T11:33:22;101793.00;;;27.00
12061;BMP180;6091;51.432;6.880;2022-07-10T11:35:53;101792.00;;;27.10
12061;BMP180;6091;51.432;6.880;2022-07-10T11:38:25;101785.00;;;27.10
12061;BMP180;6091;51.432;6.880;2022-07-10T11:40:53;101778.00;;;27.10
12061;BMP180;6091;51.432;6.880;2022-07-10T11:43:23;101788.00;;;27.20
12061;BMP180;6091;51.432;6.880;2022-07-10T11:45:53;101785.00;;;27.20
12061;BMP180;6091;51.432;6.880;2022-07-10T11:48:27;101781.00;;;27.30
12061;BMP180;6091;51.432;6.880;2022-07-10T11:50:55;101770.00;;;27.30
12061;BMP180;6091;51.432;6.880;2022-07-10T11:53:25;101786.00;;;27.40
12061;BMP180;6091;51.432;6.880;2022-07-10T11:55:53;101779.00;;;27.40
12061;BMP180;6091;51.432;6.880;2022-07-10T11:58:21;101785.00;;;27.40
12061;BMP180;6091;51.432;6.880;2022-07-10T12:01:04;101779.00;;;27.30
12061;BMP180;6091;51.432;6.880;2022-07-10T12:03:34;101778.00;;;27.30
12061;BMP180;6091;51.432;6.880;2022-07-10T12:06:06;101773.00;;;27.30
12061;BMP180;6091;51.432;6.880;2022-07-10T12:08:46;101774.00;;;27.20
12061;BMP180;6091;51.432;6.880;2022-07-10T12:11:19;101769.00;;;27.20
12061;BMP180;6091;51.432;6.880;2022-07-10T12:13:50;101776.00;;;27.20
12061;BMP180;6091;51.432;6.880;2022-07-10T12:16:19;101781.00;;;27.20
12061;BMP180;6091;51.432;6.880;2022-07-10T12:18:47;101781.00;;;27.20
12061;BMP180;6091;51.432;6.880;2022-07-10T12:21:15;101779.00;;;27.20
12061;BMP180;6091;51.432;6.880;2022-07-10T12:23:44;101775.00;;;27.20
12061;BMP180;6091;51.432;6.880;2022-07-10T12:26:13;101776.00;;;27.30
12061;BMP180;6091;51.432;6.880;2022-07-10T12:28:55;101765.00;;;27.30
12061;BMP180;6091;51.432;6.880;2022-07-10T12:31:24;101775.00;;;27.20
12061;BMP180;6091;51.432;6.880;2022-07-10T12:33:54;101772.00;;;27.20
12061;BMP180;6091;51.432;6.880;2022-07-10T12:36:25;101773.00;;;27.30
12061;BMP180;6091;51.432;6.880;2022-07-10T12:38:57;101771.00;;;27.30
12061;BMP180;6091;51.432;6.880;2022-07-10T12:41:27;101761.00;;;27.30
12061;BMP180;6091;51.432;6.880;2022-07-10T12:43:54;101766.00;;;27.30
12061;BMP180;6091;51.432;6.880;2022-07-10T12:46:24;101762.00;;;27.30
12061;BMP180;6091;51.432;6.880;2022-07-10T12:49:03;101764.00;;;27.30
12061;BMP180;6091;51.432;6.880;2022-07-10T12:51:52;101770.00;;;27.40
12061;BMP180;6091;51.432;6.880;2022-07-10T12:54:38;101768.00;;;27.50
12061;BMP180;6091;51.432;6.880;2022-07-10T12:57:06;101767.00;;;27.60
12061;BMP180;6091;51.432;6.880;2022-07-10T12:59:35;101762.00;;;27.60
12061;BMP180;6091;51.432;6.880;2022-07-10T13:02:18;101757.00;;;27.70
12061;BMP180;6091;51.432;6.880;2022-07-10T13:04:56;101751.00;;;27.70
12061;BMP180;6091;51.432;6.880;2022-07-10T13:07:35;101750.00;;;27.70
12061;BMP180;6091;51.432;6.880;2022-07-10T13:10:05;101755.00;;;27.70
12061;BMP180;6091;51.432;6.880;2022-07-10T13:12:35;101747.00;;;27.70
12061;BMP180;6091;51.432;6.880;2022-07-10T13:15:03;101746.00;;;27.70
12061;BMP180;6091;51.432;6.880;2022-07-10T13:17:31;101753.00;;;27.70
12061;BMP180;6091;51.432;6.880;2022-07-10T13:19:58;101747.00;;;27.70
12061;BMP180;6091;51.432;6.880;2022-07-10T13:22:25;101740.00;;;27.80
12061;BMP180;6091;51.432;6.880;2022-07-10T13:24:52;101742.00;;;27.80
12061;BMP180;6091;51.432;6.880;2022-07-10T13:27:19;101750.00;;;27.80
12061;BMP180;6091;51.432;6.880;2022-07-10T13:29:46;101744.00;;;27.80
12061;BMP180;6091;51.432;6.880;2022-07-10T13:32:16;101748.00;;;27.80
12061;BMP180;6091;51.432;6.880;2022-07-10T13:34:43;101748.00;;;27.80
12061;BMP180;6091;51.432;6.880;2022-07-10T13:37:10;101742.00;;;27.80
12061;BMP180;6091;51.432;6.880;2022-07-10T13:39:40;101737.00;;;27.80
12061;BMP180;6091;51.432;6.880;2022-07-10T13:42:07;101737.00;;;27.70
12061;BMP180;6091;51.432;6.880;2022-07-10T13:44:34;101734.00;;;27.70
12061;BMP180;6091;51.432;6.880;2022-07-10T13:47:01;101722.00;;;27.70
12061;BMP180;6091;51.432;6.880;2022-07-10T13:49:29;101724.00;;;27.70
12061;BMP180;6091;51.432;6.880;2022-07-10T13:51:57;101724.00;;;27.70
12061;BMP180;6091;51.432;6.880;2022-07-10T13:54:24;101725.00;;;27.60
12061;BMP180;6091;51.432;6.880;2022-07-10T13:56:51;101728.00;;;27.60
12061;BMP180;6091;51.432;6.880;2022-07-10T13:59:18;101717.00;;;27.60
12061;BMP180;6091;51.432;6.880;2022-07-10T14:01:45;101714.00;;;27.50
12061;BMP180;6091;51.432;6.880;2022-07-10T14:04:12;101713.00;;;27.50
12061;BMP180;6091;51.432;6.880;2022-07-10T14:06:39;101720.00;;;27.50
12061;BMP180;6091;51.432;6.880;2022-07-10T14:09:06;101719.00;;;27.50
12061;BMP180;6091;51.432;6.880;2022-07-10T14:11:33;101722.00;;;27.50
12061;BMP180;6091;51.432;6.880;2022-07-10T14:14:01;101716.00;;;27.50
12061;BMP180;6091;51.432;6.880;2022-07-10T14:16:28;101726.00;;;27.40
12061;BMP180;6091;51.432;6.880;2022-07-10T14:18:55;101724.00;;;27.40
12061;BMP180;6091;51.432;6.880;2022-07-10T14:21:22;101724.00;;;27.40
12061;BMP180;6091;51.432;6.880;2022-07-10T14:23:54;101721.00;;;27.40
12061;BMP180;6091;51.432;6.880;2022-07-10T14:26:23;101730.00;;;27.40
12061;BMP180;6091;51.432;6.880;2022-07-10T14:28:50;101723.00;;;27.40
12061;BMP180;6091;51.432;6.880;2022-07-10T14:31:18;101725.00;;;27.40
12061;BMP180;6091;51.432;6.880;2022-07-10T14:33:47;101724.00;;;27.40
12061;BMP180;6091;51.432;6.880;2022-07-10T14:36:15;101720.00;;;27.40
12061;BMP180;6091;51.432;6.880;2022-07-10T14:38:41;101723.00;;;27.40
12061;BMP180;6091;51.432;6.880;2022-07-10T14:41:10;101719.00;;;27.40
12061;BMP180;6091;51.432;6.880;2022-07-10T14:43:37;101721.00;;;27.40
12061;BMP180;6091;51.432;6.880;2022-07-10T14:46:04;101717.00;;;27.40
12061;BMP180;6091;51.432;6.880;2022-07-10T14:48:33;101719.00;;;27.40
12061;BMP180;6091;51.432;6.880;2022-07-10T14:51:01;101730.00;;;27.40
12061;BMP180;6091;51.432;6.880;2022-07-10T14:53:29;101723.00;;;27.40
12061;BMP180;6091;51.432;6.880;2022-07-10T14:55:57;101728.00;;;27.40